Time;durP1;ratioP1;P1;durP2;ratioP2;P2;SDS_P1;SDS_P2;PMS_P1;PMS_P2;Temp;Humidity;BMP_temperature;BMP_pressure;BME280_temperature;BME280_humidity;BME280_pressure;Samples;Min_cycle;Max_cycle;Signal;HPM_P1;HPM_P2
2021/11/14 00:02:47;;;;;;;21.17;16.93;;;;;;;9.75;66.53;97897.34;8317421;28;20240;-64
2021/11/14 00:07:08;;;;;;;20.30;18.03;;;;;;;9.76;66.88;97899.00;8318419;28;20239;-65
2021/11/14 00:11:18;;;;;;;19.73;17.63;;;;;;;9.62;67.53;97904.78;8317922;28;20243;-65
2021/11/14 00:15:21;;;;;;;29.10;19.63;;;;;;;9.55;67.29;97905.91;8318072;28;20236;-64
2021/11/14 00:19:24;;;;;;;21.73;18.03;;;;;;;9.50;68.27;97911.28;8318271;28;20236;-64
2021/11/14 00:23:27;;;;;;;21.93;18.23;;;;;;;9.55;67.58;97908.50;8318079;28;20376;-64
2021/11/14 00:27:31;;;;;;;18.70;16.60;;;;;;;9.54;67.28;97909.44;8318077;28;20418;-64
2021/11/14 00:31:35;;;;;;;19.13;17.13;;;;;;;9.29;68.54;97910.41;8316906;28;20233;-64
2021/11/14 00:35:38;;;;;;;19.47;16.87;;;;;;;9.57;68.06;97909.28;8317969;28;20260;-64
2021/11/14 00:39:41;;;;;;;19.27;17.27;;;;;;;9.59;67.61;97912.63;8317642;28;20240;-64
2021/11/14 00:43:46;;;;;;;18.87;16.97;;;;;;;9.56;67.60;97920.53;8317428;28;20244;-64
2021/11/14 00:47:49;;;;;;;18.83;16.30;;;;;;;9.75;67.35;97910.28;8317076;28;20228;-64
2021/11/14 00:51:52;;;;;;;22.27;17.77;;;;;;;9.77;66.86;97918.81;8317681;28;20240;-65
2021/11/14 00:55:55;;;;;;;20.90;17.97;;;;;;;9.82;67.15;97913.44;8317555;28;20258;-64
2021/11/14 00:59:59;;;;;;;20.83;17.83;;;;;;;9.77;67.50;97921.41;8316968;28;20434;-64
2021/11/14 01:04:02;;;;;;;24.13;19.13;;;;;;;9.82;67.44;97922.03;8316976;28;20247;-64
2021/11/14 01:08:06;;;;;;;23.20;19.63;;;;;;;9.63;68.04;97931.47;8317109;28;20233;-64
2021/11/14 01:12:09;;;;;;;22.50;18.60;;;;;;;9.58;68.47;97926.47;8316989;28;20570;-64
2021/11/14 01:16:17;;;;;;;23.57;20.50;;;;;;;9.61;68.27;97938.44;8316582;28;20392;-64
2021/11/14 01:20:23;;;;;;;21.07;18.43;;;;;;;9.79;67.29;97933.34;8316791;28;20539;-64
2021/11/14 01:24:26;;;;;;;22.80;19.03;;;;;;;9.89;67.50;97933.81;8316200;28;20229;-64
2021/11/14 01:28:29;;;;;;;23.20;19.83;;;;;;;9.78;67.55;97930.81;8316071;28;20239;-64
2021/11/14 01:32:34;;;;;;;21.63;19.43;;;;;;;9.78;67.53;97934.25;8315890;28;20247;-64
2021/11/14 01:36:36;;;;;;;22.97;18.83;;;;;;;9.85;67.46;97923.66;8316017;28;20233;-64
2021/11/14 01:40:43;;;;;;;23.33;19.33;;;;;;;9.94;67.07;97929.28;8315514;28;20247;-64
2021/11/14 01:44:46;;;;;;;23.23;19.53;;;;;;;9.87;67.16;97933.03;8316986;28;20231;-64
2021/11/14 01:48:51;;;;;;;21.67;18.60;;;;;;;10.05;66.78;97933.16;8315992;28;20240;-64
2021/11/14 01:52:54;;;;;;;23.10;18.97;;;;;;;9.91;66.95;97932.00;8315450;28;20243;-64
2021/11/14 01:57:00;;;;;;;22.93;19.07;;;;;;;10.10;66.40;97932.03;8315600;28;20233;-64
2021/11/14 02:01:08;;;;;;;21.40;18.53;;;;;;;10.02;66.91;97935.88;8315448;28;20421;-64
2021/11/14 02:05:13;;;;;;;20.50;18.00;;;;;;;9.89;67.21;97941.56;8315187;28;20400;-64
2021/11/14 02:09:16;;;;;;;20.73;18.53;;;;;;;9.90;67.14;97935.50;8315278;28;20232;-64
2021/11/14 02:13:19;;;;;;;23.83;19.37;;;;;;;9.98;67.03;97940.34;8315329;28;20539;-64
2021/11/14 02:17:22;;;;;;;21.93;19.40;;;;;;;9.90;67.38;97940.66;8315332;28;20236;-64
2021/11/14 02:21:26;;;;;;;21.73;19.43;;;;;;;9.97;66.98;97944.66;8314920;28;20236;-64
2021/11/14 02:25:29;;;;;;;23.50;19.27;;;;;;;10.09;66.26;97951.09;8315141;28;20237;-65
2021/11/14 02:29:32;;;;;;;23.87;19.30;;;;;;;10.08;66.75;97949.38;8314976;28;20236;-65
2021/11/14 02:33:35;;;;;;;22.97;19.90;;;;;;;9.80;67.22;97952.28;8315052;28;20243;-66
2021/11/14 02:37:39;;;;;;;22.27;19.67;;;;;;;9.89;67.52;97962.25;8314826;28;20236;-64
2021/11/14 02:41:42;;;;;;;23.23;19.87;;;;;;;9.71;67.87;97960.41;8314762;28;20244;-64
2021/11/14 02:45:45;;;;;;;22.10;19.70;;;;;;;9.80;67.34;97962.63;8314966;28;20239;-65
2021/11/14 02:49:48;;;;;;;23.67;19.27;;;;;;;9.88;66.99;97963.19;8314106;28;20228;-64
2021/11/14 02:53:52;;;;;;;21.93;19.20;;;;;;;10.15;66.34;97962.91;8317198;28;20240;-65
2021/11/14 02:57:56;;;;;;;21.97;19.07;;;;;;;10.16;66.33;97962.00;8320794;28;20570;-64
2021/11/14 03:01:59;;;;;;;27.73;21.07;;;;;;;10.03;66.68;97971.19;8320698;28;20237;-64
2021/11/14 03:06:03;;;;;;;24.33;20.47;;;;;;;10.08;66.61;97974.44;8320625;28;20233;-64
2021/11/14 03:10:11;;;;;;;26.57;19.93;;;;;;;10.11;66.25;97974.28;8320327;28;20232;-64
2021/11/14 03:14:14;;;;;;;24.23;20.63;;;;;;;9.95;67.43;97974.94;8320164;28;20244;-64
2021/11/14 03:18:19;;;;;;;24.77;21.13;;;;;;;10.03;66.72;97976.34;8320098;28;20229;-64
2021/11/14 03:22:22;;;;;;;25.90;20.30;;;;;;;10.18;66.22;97974.00;8319740;28;20237;-64
2021/11/14 03:26:27;;;;;;;22.93;20.30;;;;;;;10.04;66.91;97972.88;8319750;28;20232;-64
2021/11/14 03:30:33;;;;;;;26.07;19.97;;;;;;;10.20;66.10;97986.00;8319665;28;20236;-64
2021/11/14 03:34:35;;;;;;;22.40;19.30;;;;;;;10.29;66.00;97986.44;8319623;28;20250;-64
2021/11/14 03:38:42;;;;;;;25.27;19.13;;;;;;;10.32;65.94;97980.34;8319427;28;20263;-64
2021/11/14 03:42:46;;;;;;;25.83;20.33;;;;;;;10.33;65.72;97984.59;8319284;28;20246;-64
2021/11/14 03:46:49;;;;;;;27.53;20.40;;;;;;;10.24;65.64;97988.38;8318704;28;20236;-64
2021/11/14 03:50:53;;;;;;;33.13;22.67;;;;;;;10.25;65.95;97990.06;8319465;28;20240;-64
2021/11/14 03:54:56;;;;;;;31.47;20.73;;;;;;;10.25;65.91;97989.25;8319028;28;20291;-64
2021/11/14 03:59:01;;;;;;;40.70;23.17;;;;;;;10.06;66.25;97999.53;8318803;28;20232;-63
2021/11/14 04:03:05;;;;;;;36.43;22.27;;;;;;;10.29;65.60;97994.22;8318534;28;20249;-64
2021/11/14 04:07:07;;;;;;;40.13;24.57;;;;;;;10.00;66.18;97999.78;8318663;28;20237;-64
2021/11/14 04:11:10;;;;;;;39.50;24.77;;;;;;;10.06;66.46;98004.69;8318247;28;20568;-64
2021/11/14 04:15:17;;;;;;;33.87;22.90;;;;;;;10.26;65.64;98003.84;8318040;28;20233;-63
2021/11/14 04:19:20;;;;;;;39.07;23.20;;;;;;;10.15;66.31;98005.16;8318200;28;20236;-64
2021/11/14 04:23:23;;;;;;;33.67;22.60;;;;;;;10.27;65.51;98001.19;8318257;28;20245;-64
2021/11/14 04:27:26;;;;;;;41.27;24.77;;;;;;;10.22;65.57;98002.31;8317888;28;20547;-64
2021/11/14 04:31:30;;;;;;;48.63;25.13;;;;;;;10.14;65.76;98007.81;8317857;28;20237;-64
2021/11/14 04:35:34;;;;;;;48.00;25.17;;;;;;;9.96;66.33;98004.25;8317716;28;20263;-64
2021/11/14 04:39:41;;;;;;;47.70;24.47;;;;;;;9.77;67.30;98011.91;8317758;28;20288;-64
2021/11/14 04:43:45;;;;;;;45.97;23.17;;;;;;;10.10;65.91;98017.44;8317313;28;20241;-64
2021/11/14 04:47:49;;;;;;;45.47;24.03;;;;;;;10.22;65.30;98021.25;8316735;28;20229;-64
2021/11/14 04:51:52;;;;;;;42.17;22.97;;;;;;;10.22;65.12;98018.66;8317123;28;20247;-64
2021/11/14 04:55:55;;;;;;;45.87;23.60;;;;;;;10.24;65.48;98018.59;8317249;28;20240;-64
2021/11/14 04:59:58;;;;;;;39.00;22.77;;;;;;;10.25;65.32;98010.78;8317098;28;20241;-64
2021/11/14 05:04:02;;;;;;;42.50;25.33;;;;;;;10.14;65.46;98024.16;8316786;28;20237;-64
2021/11/14 05:08:06;;;;;;;43.43;23.83;;;;;;;10.07;66.43;98029.66;8316643;28;20433;-64
2021/11/14 05:12:09;;;;;;;36.87;23.23;;;;;;;10.25;65.41;98021.13;8316571;28;20246;-64
2021/11/14 05:16:12;;;;;;;35.93;22.60;;;;;;;10.28;65.21;98028.78;8315979;28;20542;-64
2021/11/14 05:20:17;;;;;;;41.57;22.40;;;;;;;10.32;65.35;98043.31;8316379;28;20255;-64
2021/11/14 05:24:20;;;;;;;36.23;22.73;;;;;;;10.15;65.63;98040.56;8316645;28;20232;-63
2021/11/14 05:28:23;;;;;;;38.30;21.67;;;;;;;9.90;66.11;98040.69;8316407;28;20240;-64
2021/11/14 05:32:26;;;;;;;36.60;22.13;;;;;;;9.99;65.78;98045.50;8316517;28;20536;-64
2021/11/14 05:36:30;;;;;;;33.43;20.80;;;;;;;9.89;66.36;98051.97;8315989;28;20233;-63
2021/11/14 05:40:33;;;;;;;33.67;20.90;;;;;;;9.94;65.78;98057.81;8316258;28;20232;-63
2021/11/14 05:44:36;;;;;;;28.60;19.00;;;;;;;9.78;65.67;98073.91;8315992;28;20233;-63
2021/11/14 05:48:39;;;;;;;28.87;18.90;;;;;;;9.88;65.83;98082.16;8316034;28;20235;-64
2021/11/14 05:52:44;;;;;;;26.80;18.17;;;;;;;9.94;65.67;98076.75;8315260;28;20236;-64
2021/11/14 05:56:46;;;;;;;26.57;17.20;;;;;;;9.96;65.12;98079.28;8315257;28;20240;-64
2021/11/14 06:00:54;;;;;;;29.20;18.50;;;;;;;10.00;65.39;98075.66;8303389;28;20232;-63
2021/11/14 06:05:03;;;;;;;23.57;16.40;;;;;;;10.11;65.27;98090.72;8297444;28;20448;-63
2021/11/14 06:09:07;;;;;;;25.30;17.43;;;;;;;10.28;64.69;98090.91;8297794;28;20245;-63
2021/11/14 06:13:10;;;;;;;23.13;16.90;;;;;;;10.04;65.02;98097.91;8297824;28;20571;-63
2021/11/14 06:17:13;;;;;;;23.20;15.77;;;;;;;10.13;65.30;98110.47;8297958;28;20240;-64
2021/11/14 06:21:16;;;;;;;22.73;17.37;;;;;;;10.26;64.66;98107.38;8297709;28;20236;-64
2021/11/14 06:25:20;;;;;;;20.23;15.70;;;;;;;9.95;65.16;98127.56;8288745;28;20240;-64
2021/11/14 06:29:23;;;;;;;21.37;15.60;;;;;;;9.67;66.44;98121.78;8291757;28;20225;-64
2021/11/14 06:33:26;;;;;;;20.17;14.77;;;;;;;9.72;66.24;98127.63;8304614;28;20228;-64
2021/11/14 06:37:30;;;;;;;19.50;15.13;;;;;;;9.76;66.14;98126.59;8304246;28;20314;-64
2021/11/14 06:41:34;;;;;;;18.83;14.10;;;;;;;9.69;66.24;98135.47;8305367;28;20245;-64
2021/11/14 06:45:37;;;;;;;17.40;13.77;;;;;;;9.96;65.81;98147.38;8299612;28;20256;-63
2021/11/14 06:49:40;;;;;;;20.57;15.97;;;;;;;9.88;65.46;98144.25;8321459;28;20232;-64
2021/11/14 06:53:43;;;;;;;18.30;14.30;;;;;;;9.93;65.04;98151.81;8315648;28;20237;-64
2021/11/14 06:57:47;;;;;;;21.23;14.17;;;;;;;10.00;65.65;98157.63;8320314;28;20233;-66
2021/11/14 07:01:50;;;;;;;23.37;14.20;;;;;;;10.02;65.19;98171.34;8306801;28;20245;-66
2021/11/14 07:05:53;;;;;;;17.90;13.63;;;;;;;9.86;65.15;98184.84;8288534;28;20233;-65
2021/11/14 07:09:56;;;;;;;16.30;13.00;;;;;;;9.81;65.15;98180.75;8287690;28;20237;-65
2021/11/14 07:14:01;;;;;;;18.93;13.50;;;;;;;9.77;65.19;98185.19;8287535;28;20260;-65
2021/11/14 07:18:04;;;;;;;16.30;13.37;;;;;;;9.83;65.62;98190.13;8288178;28;20544;-65
2021/11/14 07:22:06;;;;;;;21.23;14.60;;;;;;;9.79;66.25;98197.16;8287996;28;20233;-65
2021/11/14 07:26:09;;;;;;;17.80;13.50;;;;;;;9.91;65.20;98193.25;8287966;28;20238;-65
2021/11/14 07:30:15;;;;;;;19.83;13.40;;;;;;;9.81;66.11;98189.34;8287225;28;20439;-65
2021/11/14 07:34:18;;;;;;;19.87;13.80;;;;;;;9.90;65.89;98195.91;8286916;28;20237;-65
2021/11/14 07:38:20;;;;;;;17.00;13.53;;;;;;;10.19;64.88;98184.44;8286534;28;20233;-65
2021/11/14 07:42:23;;;;;;;20.23;13.87;;;;;;;10.09;64.58;98194.31;8286914;28;20237;-65
2021/11/14 07:46:32;;;;;;;17.67;13.53;;;;;;;10.27;64.75;98197.09;8304769;28;20298;-65
2021/11/14 07:50:36;;;;;;;17.87;13.40;;;;;;;10.42;64.34;98196.50;8318849;28;20236;-65
2021/11/14 07:54:39;;;;;;;16.73;13.20;;;;;;;10.45;64.41;98200.72;8299418;28;20237;-65
2021/11/14 07:58:42;;;;;;;17.43;14.00;;;;;;;10.48;64.00;98210.97;8309243;28;20430;-65
2021/11/14 08:02:46;;;;;;;20.40;15.63;;;;;;;10.49;64.37;98221.25;8309833;28;20230;-65
2021/11/14 08:06:49;;;;;;;21.07;15.63;;;;;;;10.51;64.39;98218.63;8301178;28;20422;-66
2021/11/14 08:10:52;;;;;;;21.07;14.87;;;;;;;10.54;64.87;98219.31;8301370;28;20245;-66
2021/11/14 08:14:55;;;;;;;19.60;15.40;;;;;;;10.68;64.18;98220.50;8301097;28;20260;-65
2021/11/14 08:18:59;;;;;;;19.57;15.17;;;;;;;10.65;64.45;98218.88;8300677;28;20225;-65
2021/11/14 08:23:03;;;;;;;20.03;15.30;;;;;;;10.61;64.45;98222.50;8301180;28;20513;-63
2021/11/14 08:27:06;;;;;;;22.23;16.00;;;;;;;10.69;64.01;98227.38;8301648;28;20245;-62
2021/11/14 08:31:09;;;;;;;20.17;15.40;;;;;;;10.67;64.33;98235.19;8303801;28;20240;-64
2021/11/14 08:35:14;;;;;;;21.37;15.77;;;;;;;10.61;64.85;98242.38;8291357;28;20290;-65
2021/11/14 08:39:17;;;;;;;21.70;15.87;;;;;;;10.74;64.48;98239.22;8292640;28;20233;-65
2021/11/14 08:43:20;;;;;;;21.87;15.90;;;;;;;10.80;64.39;98245.91;8300602;28;20292;-65
2021/11/14 08:47:23;;;;;;;22.77;17.20;;;;;;;10.70;64.77;98245.44;8301124;28;20558;-65
2021/11/14 08:51:27;;;;;;;19.67;16.00;;;;;;;10.62;65.17;98254.41;8299581;28;20239;-65
2021/11/14 08:55:30;;;;;;;22.03;16.87;;;;;;;10.65;64.76;98251.72;8300252;28;20240;-65
2021/11/14 08:59:33;;;;;;;23.23;17.33;;;;;;;10.55;65.92;98246.06;8300045;28;20240;-65
2021/11/14 09:03:37;;;;;;;20.93;16.57;;;;;;;10.59;65.59;98252.81;8299478;28;20236;-65
2021/11/14 09:07:41;;;;;;;24.37;17.20;;;;;;;10.89;64.65;98252.44;8304647;28;20244;-65
2021/11/14 09:11:45;;;;;;;22.70;16.13;;;;;;;10.77;64.85;98258.97;8299386;28;20229;-65
2021/11/14 09:15:49;;;;;;;20.30;15.90;;;;;;;10.90;64.54;98264.50;8302714;28;20241;-63
2021/11/14 09:19:52;;;;;;;25.27;18.17;;;;;;;10.73;64.61;98267.78;8316334;28;20239;-63
2021/11/14 09:23:56;;;;;;;25.10;16.83;;;;;;;10.90;65.04;98274.88;8310864;28;20233;-62
2021/11/14 09:27:59;;;;;;;21.43;16.70;;;;;;;10.94;64.75;98269.50;8283864;28;20233;-63
2021/11/14 09:32:02;;;;;;;22.23;16.40;;;;;;;11.03;64.65;98280.41;8290575;28;20240;-63
2021/11/14 09:36:05;;;;;;;21.13;16.57;;;;;;;10.95;64.29;98286.75;8296318;28;20244;-63
2021/11/14 09:40:10;;;;;;;23.93;18.03;;;;;;;10.97;64.95;98273.72;8283229;28;20237;-63
2021/11/14 09:44:17;;;;;;;23.23;17.97;;;;;;;11.20;64.76;98277.13;8283164;28;20244;-63
2021/11/14 09:48:20;;;;;;;23.23;17.37;;;;;;;11.26;64.50;98272.50;8292309;28;20235;-63
2021/11/14 09:52:24;;;;;;;23.93;17.63;;;;;;;11.22;64.50;98281.31;8284562;28;20233;-63
2021/11/14 09:56:29;;;;;;;30.90;19.57;;;;;;;11.13;65.05;98281.69;8282869;28;20236;-63
2021/11/14 10:00:32;;;;;;;25.33;18.03;;;;;;;11.38;64.75;98278.09;8290882;28;20232;-63
2021/11/14 10:04:35;;;;;;;25.70;17.17;;;;;;;11.50;64.20;98280.16;8297923;28;20237;-63
2021/11/14 10:08:42;;;;;;;25.00;18.87;;;;;;;11.59;63.91;98282.34;8297979;28;20229;-64
2021/11/14 10:12:46;;;;;;;29.73;21.30;;;;;;;11.80;63.49;98287.50;8298081;28;20233;-63
2021/11/14 10:16:49;;;;;;;30.20;22.23;;;;;;;11.77;63.80;98282.47;8297390;28;20221;-64
2021/11/14 10:20:54;;;;;;;23.03;17.93;;;;;;;11.72;64.05;98275.69;8297783;28;20227;-64
2021/11/14 10:24:57;;;;;;;25.57;18.70;;;;;;;11.81;64.13;98277.06;8297766;28;20641;-64
2021/11/14 10:29:03;;;;;;;22.23;17.33;;;;;;;11.95;64.63;98266.09;8297737;28;20243;-64
2021/11/14 10:33:08;;;;;;;37.30;29.53;;;;;;;12.07;64.50;98273.34;8294437;28;20285;-63
2021/11/14 10:37:11;;;;;;;44.07;29.37;;;;;;;12.41;64.03;98263.97;8282330;28;20255;-64
2021/11/14 10:41:15;;;;;;;22.93;18.60;;;;;;;12.93;61.54;98262.38;8280394;28;20411;-64
2021/11/14 10:45:25;;;;;;;27.60;18.43;;;;;;;12.61;63.47;98263.03;8290576;28;20240;-64
2021/11/14 10:49:28;;;;;;;26.87;18.50;;;;;;;12.46;63.58;98250.78;8309781;28;20251;-64
2021/11/14 10:53:32;;;;;;;22.97;16.83;;;;;;;12.24;63.61;98261.31;8304849;28;20562;-64
2021/11/14 10:57:36;;;;;;;24.40;18.07;;;;;;;12.19;63.89;98261.53;8306743;28;20413;-63
2021/11/14 11:01:41;;;;;;;23.70;17.20;;;;;;;12.22;64.70;98258.81;8291749;28;20233;-64
2021/11/14 11:05:44;;;;;;;21.77;16.10;;;;;;;12.36;64.29;98249.53;8314280;28;20236;-64
2021/11/14 11:09:53;;;;;;;21.83;16.17;;;;;;;12.21;64.63;98257.13;8306608;28;20229;-64
2021/11/14 11:13:57;;;;;;;20.27;15.77;;;;;;;12.11;65.22;98258.47;8305093;28;20240;-64
2021/11/14 11:18:06;;;;;;;22.80;16.67;;;;;;;12.08;64.62;98256.00;8320445;28;20424;-64
2021/11/14 11:22:08;;;;;;;23.97;17.13;;;;;;;12.04;65.94;98252.69;8320253;28;20335;-64
2021/11/14 11:26:12;;;;;;;18.93;13.33;;;;;;;12.24;64.83;98261.31;8304054;28;20233;-64
2021/11/14 11:30:25;;;;;;;18.90;14.60;;;;;;;12.40;64.19;98261.47;8302811;28;20230;-64
2021/11/14 11:34:30;;;;;;;17.67;13.10;;;;;;;12.45;64.42;98260.34;8302727;28;20239;-63
2021/11/14 11:38:33;;;;;;;21.27;14.67;;;;;;;12.50;64.31;98260.09;8302826;28;20231;-64
2021/11/14 11:42:36;;;;;;;18.17;13.40;;;;;;;12.64;63.96;98246.44;8302621;28;20228;-64
2021/11/14 11:46:41;;;;;;;17.10;12.90;;;;;;;12.47;64.27;98250.72;8301621;28;20400;-63
2021/11/14 11:51:11;;;;;;;15.87;12.73;;;;;;;12.65;64.47;98248.97;8302005;28;20243;-64
2021/11/14 11:55:19;;;;;;;16.93;12.83;;;;;;;12.83;64.29;98249.00;8305289;28;20235;-64
2021/11/14 11:59:26;;;;;;;14.40;10.60;;;;;;;12.69;64.13;98252.28;8294116;28;20228;-63
2021/11/14 12:03:31;;;;;;;15.00;12.07;;;;;;;12.78;63.79;98257.03;8301144;28;20229;-64
2021/11/14 12:07:36;;;;;;;15.97;10.30;;;;;;;12.97;63.67;98250.94;8298406;28;20225;-63
2021/11/14 12:11:40;;;;;;;11.70;9.60;;;;;;;12.81;63.95;98245.63;8285478;28;20532;-63
2021/11/14 12:15:43;;;;;;;11.73;9.57;;;;;;;12.82;63.53;98255.13;8285125;28;20237;-63
2021/11/14 12:19:48;;;;;;;11.87;9.33;;;;;;;12.90;63.12;98260.78;8296682;28;20221;-64
2021/11/14 12:23:58;;;;;;;10.33;8.83;;;;;;;13.02;62.88;98260.19;8304374;28;20252;-64
2021/11/14 12:28:12;;;;;;;10.43;9.03;;;;;;;12.86;62.63;98262.69;8299499;28;20233;-63
2021/11/14 12:32:18;;;;;;;9.73;8.07;;;;;;;13.07;62.75;98260.78;8300708;28;20225;-63
2021/11/14 12:36:33;;;;;;;9.50;8.07;;;;;;;12.81;63.16;98258.63;8307720;28;20237;-64
2021/11/14 12:40:40;;;;;;;10.47;7.93;;;;;;;12.92;63.20;98266.75;8297162;28;20229;-64
2021/11/14 12:44:45;;;;;;;8.73;7.83;;;;;;;13.00;62.75;98276.75;8295066;28;20235;-63
2021/11/14 12:48:49;;;;;;;9.00;8.10;;;;;;;12.81;63.24;98269.00;8297600;28;20233;-63
2021/11/14 12:53:05;;;;;;;12.67;7.80;;;;;;;13.02;62.95;98268.00;8297667;28;20559;-63
2021/11/14 12:57:13;;;;;;;9.37;7.20;;;;;;;13.02;63.26;98272.31;8284869;28;20539;-63
2021/11/14 13:01:22;;;;;;;12.37;10.17;;;;;;;13.04;62.55;98275.69;8284273;28;20230;-63
2021/11/14 13:05:27;;;;;;;9.27;7.87;;;;;;;13.12;62.27;98276.16;8284218;28;20237;-64
2021/11/14 13:09:32;;;;;;;8.70;7.80;;;;;;;12.91;62.83;98275.47;8311398;28;20241;-65
2021/11/14 13:13:38;;;;;;;9.20;7.20;;;;;;;13.02;62.80;98273.19;8316903;28;20555;-65
2021/11/14 13:17:44;;;;;;;8.50;7.37;;;;;;;13.10;62.39;98271.03;8316251;28;20233;-64
2021/11/14 13:21:52;;;;;;;9.53;7.83;;;;;;;13.09;61.92;98277.13;8316258;28;20236;-65
2021/11/14 13:26:03;;;;;;;9.10;7.27;;;;;;;12.95;62.84;98276.16;8316207;28;20236;-65
2021/11/14 13:30:08;;;;;;;7.97;6.83;;;;;;;13.13;62.34;98277.00;8316169;28;20241;-67
2021/11/14 13:34:15;;;;;;;6.37;5.67;;;;;;;14.06;60.70;98271.34;8314665;28;20236;-66
2021/11/14 13:38:18;;;;;;;6.97;5.80;;;;;;;14.20;58.67;98274.06;8314943;28;20232;-69
2021/11/14 13:42:23;;;;;;;6.83;6.17;;;;;;;14.31;57.78;98278.69;8315652;28;20239;-60
2021/11/14 13:46:28;;;;;;;7.30;6.47;;;;;;;13.77;58.89;98289.38;8312209;28;20547;-60
2021/11/14 13:50:33;;;;;;;8.63;7.20;;;;;;;13.48;59.49;98294.31;8314166;28;20344;-62
2021/11/14 13:54:45;;;;;;;7.83;7.03;;;;;;;13.39;60.11;98280.94;8306734;28;20534;-63
2021/11/14 13:58:51;;;;;;;8.07;7.03;;;;;;;13.32;60.36;98298.59;8308484;28;20224;-63
2021/11/14 14:02:56;;;;;;;8.20;7.37;;;;;;;13.26;60.27;98302.31;8315502;28;20233;-63
2021/11/14 14:07:04;;;;;;;9.87;8.97;;;;;;;13.06;60.72;98302.44;8305745;28;20240;-65
2021/11/14 14:11:09;;;;;;;8.63;7.83;;;;;;;12.92;60.61;98310.94;8282514;28;20236;-63
2021/11/14 14:15:14;;;;;;;8.47;7.63;;;;;;;12.64;60.37;98308.81;8305449;28;20574;-63
2021/11/14 14:19:19;;;;;;;6.53;5.93;;;;;;;12.58;60.01;98325.50;8315079;28;20551;-63
2021/11/14 14:23:24;;;;;;;5.80;5.30;;;;;;;12.36;60.01;98322.25;8314867;28;20588;-63
2021/11/14 14:27:27;;;;;;;7.57;5.70;;;;;;;12.28;60.33;98330.38;8314696;28;20239;-63
2021/11/14 14:31:31;;;;;;;7.93;5.60;;;;;;;11.93;60.33;98332.78;8301178;28;20239;-62
2021/11/14 14:35:42;;;;;;;6.37;5.77;;;;;;;11.89;60.41;98326.03;8297383;28;20442;-62
2021/11/14 14:39:48;;;;;;;6.80;5.53;;;;;;;12.18;59.70;98331.72;8298537;28;20220;-64
2021/11/14 14:43:53;;;;;;;6.43;5.83;;;;;;;12.18;59.92;98326.50;8313973;28;20241;-63
2021/11/14 14:48:00;;;;;;;7.17;6.47;;;;;;;12.27;59.87;98333.91;8314216;28;20558;-64
2021/11/14 14:52:07;;;;;;;8.17;6.60;;;;;;;12.46;60.44;98332.13;8303673;28;20554;-63
2021/11/14 14:56:16;;;;;;;7.93;6.67;;;;;;;12.36;60.54;98333.47;8303441;28;20296;-63
2021/11/14 15:00:19;;;;;;;7.33;6.63;;;;;;;12.46;60.02;98331.28;8303852;28;20422;-63
2021/11/14 15:04:25;;;;;;;7.63;6.80;;;;;;;12.35;60.05;98328.34;8299558;28;71099;-63
2021/11/14 15:08:34;;;;;;;8.07;7.27;;;;;;;12.25;60.36;98326.16;8300643;28;20325;-62
2021/11/14 15:12:39;;;;;;;7.97;7.17;;;;;;;12.05;60.69;98336.59;8286328;28;20238;-62
2021/11/14 15:16:41;;;;;;;8.80;6.97;;;;;;;12.23;60.04;98340.97;8286159;28;20437;-63
2021/11/14 15:20:45;;;;;;;7.87;7.07;;;;;;;12.06;60.08;98338.28;8295619;28;20411;-62
2021/11/14 15:24:49;;;;;;;8.60;7.80;;;;;;;12.02;60.31;98334.16;8319489;28;20229;-62
2021/11/14 15:28:52;;;;;;;8.13;7.43;;;;;;;11.88;60.15;98332.97;8319843;28;20236;-65
2021/11/14 15:32:55;;;;;;;8.27;7.47;;;;;;;12.05;59.88;98334.88;8319516;28;20364;-63
2021/11/14 15:36:58;;;;;;;9.97;8.97;;;;;;;11.95;60.14;98346.53;8319467;28;20236;-63
2021/11/14 15:41:03;;;;;;;9.93;8.80;;;;;;;11.91;60.07;98350.19;8308994;28;20225;-62
2021/11/14 15:45:08;;;;;;;9.77;8.87;;;;;;;12.04;60.37;98358.28;8286287;28;20245;-62
2021/11/14 15:49:10;;;;;;;9.83;8.93;;;;;;;11.96;60.21;98357.78;8286761;28;20229;-63
2021/11/14 15:53:14;;;;;;;8.80;8.00;;;;;;;12.06;60.24;98362.50;8300394;28;20233;-62
2021/11/14 15:57:18;;;;;;;8.57;7.80;;;;;;;12.14;59.77;98356.97;8292818;28;20234;-62
2021/11/14 16:01:21;;;;;;;8.97;8.17;;;;;;;12.05;59.88;98363.41;8301112;28;20229;-61
2021/11/14 16:05:25;;;;;;;9.63;8.63;;;;;;;12.14;59.88;98367.34;8286415;28;20245;-61
2021/11/14 16:09:28;;;;;;;12.00;9.40;;;;;;;12.07;59.65;98376.31;8285877;28;20237;-61
2021/11/14 16:13:33;;;;;;;10.17;9.27;;;;;;;12.27;59.84;98375.44;8286255;28;20237;-61
2021/11/14 16:17:37;;;;;;;10.43;9.37;;;;;;;12.22;59.81;98382.59;8285826;28;20244;-61
2021/11/14 16:21:40;;;;;;;11.30;10.23;;;;;;;12.36;59.65;98392.38;8286041;28;20241;-61
2021/11/14 16:25:43;;;;;;;11.63;9.60;;;;;;;12.37;59.93;98396.66;8285596;28;20240;-61
2021/11/14 16:29:47;;;;;;;10.00;9.03;;;;;;;12.45;60.06;98399.72;8284727;28;20233;-62
2021/11/14 16:33:50;;;;;;;11.50;10.37;;;;;;;12.44;60.04;98403.25;8285426;28;20240;-61
2021/11/14 16:37:53;;;;;;;11.50;9.80;;;;;;;12.40;59.60;98406.91;8296787;28;20229;-61
2021/11/14 16:41:56;;;;;;;11.00;10.00;;;;;;;12.51;60.00;98415.06;8300496;28;20235;-61
2021/11/14 16:46:01;;;;;;;12.90;11.70;;;;;;;12.45;59.87;98418.78;8299343;28;20229;-61
2021/11/14 16:50:05;;;;;;;13.20;11.80;;;;;;;12.55;59.95;98420.97;8284870;28;20254;-61
2021/11/14 16:54:10;;;;;;;12.37;11.17;;;;;;;12.54;60.00;98422.69;8284622;28;20244;-61
2021/11/14 16:58:17;;;;;;;13.07;11.87;;;;;;;12.43;60.36;98427.53;8284300;28;20233;-61
2021/11/14 17:02:21;;;;;;;13.33;11.93;;;;;;;12.35;60.71;98427.03;8284413;28;20427;-61
2021/11/14 17:06:24;;;;;;;14.03;12.63;;;;;;;12.32;60.54;98433.22;8284142;28;20257;-61
2021/11/14 17:10:28;;;;;;;15.43;13.97;;;;;;;12.20;60.42;98437.16;8283446;28;20240;-61
2021/11/14 17:14:31;;;;;;;14.13;12.83;;;;;;;12.04;60.64;98434.41;8283301;28;20247;-61
2021/11/14 17:18:35;;;;;;;15.20;13.40;;;;;;;11.82;60.75;98444.84;8286114;28;20239;-61
2021/11/14 17:22:38;;;;;;;14.97;13.50;;;;;;;11.79;60.88;98455.31;8293955;28;20228;-61
2021/11/14 17:26:41;;;;;;;13.20;12.00;;;;;;;12.10;60.35;98460.09;8299276;28;20263;-61
2021/11/14 17:30:45;;;;;;;13.27;12.00;;;;;;;11.92;60.42;98466.09;8292583;28;20436;-61
2021/11/14 17:34:49;;;;;;;13.73;12.43;;;;;;;11.70;60.94;98469.50;8283216;28;20244;-61
2021/11/14 17:38:55;;;;;;;13.37;12.07;;;;;;;11.80;60.35;98482.13;8283189;28;20477;-61
2021/11/14 17:42:58;;;;;;;13.80;12.43;;;;;;;11.78;60.37;98476.97;8285279;28;20233;-61
2021/11/14 17:47:01;;;;;;;13.17;11.77;;;;;;;11.73;61.00;98481.53;8291870;28;20256;-61
2021/11/14 17:51:07;;;;;;;14.50;13.10;;;;;;;11.78;60.67;98486.53;8284044;28;20426;-61
2021/11/14 17:55:11;;;;;;;14.77;13.27;;;;;;;11.95;60.53;98491.88;8282065;28;20236;-61
2021/11/14 17:59:14;;;;;;;14.57;13.07;;;;;;;11.79;60.27;98496.84;8282945;28;20233;-61
2021/11/14 18:03:17;;;;;;;13.90;12.60;;;;;;;11.93;60.00;98499.75;8282790;28;20229;-61
2021/11/14 18:07:23;;;;;;;14.37;12.87;;;;;;;11.87;60.23;98489.59;8282566;28;20293;-61
2021/11/14 18:11:26;;;;;;;15.03;13.53;;;;;;;11.72;60.75;98501.44;8282420;28;20244;-61
2021/11/14 18:15:28;;;;;;;14.40;13.00;;;;;;;12.10;60.08;98513.78;8282858;28;20253;-61
2021/11/14 18:19:31;;;;;;;15.63;14.13;;;;;;;12.24;59.73;98508.88;8283159;28;20233;-61
2021/11/14 18:23:36;;;;;;;14.77;13.17;;;;;;;11.94;60.26;98510.97;8282279;28;20486;-61
2021/11/14 18:27:39;;;;;;;14.43;12.93;;;;;;;12.03;59.91;98517.53;8281907;28;20269;-61
2021/11/14 18:31:42;;;;;;;14.00;12.70;;;;;;;11.96;59.69;98514.34;8282119;28;20244;-60
2021/11/14 18:35:45;;;;;;;13.53;12.20;;;;;;;11.78;59.99;98521.09;8282107;28;20249;-61
2021/11/14 18:39:50;;;;;;;12.87;11.67;;;;;;;11.99;59.78;98524.59;8281652;28;20229;-61
2021/11/14 18:43:53;;;;;;;14.63;12.80;;;;;;;12.07;59.64;98519.94;8281843;28;20240;-61
2021/11/14 18:47:56;;;;;;;14.00;12.60;;;;;;;11.67;59.89;98520.69;8281637;28;20237;-61
2021/11/14 18:51:59;;;;;;;13.87;11.57;;;;;;;11.80;61.18;98518.44;8282007;28;20259;-62